| time (UTC) | temp F | wind direction | speed knots | gust knots | rain 1hr in | rain 24hr in | rain mn in | humidity % | barometer mb |
| 20260510193005 | 67 | 270 | 0.0 | 8.7 | 0.00 | 0.23 | 0.02 | 61 | 1011.2 |
| 20260510191502 | 66 | 244 | 0.0 | 0.0 | 0.00 | 0.23 | 0.02 | 61 | 1011.4 |
| 20260510190003 | 67 | 242 | 0.0 | 0.0 | 0.00 | 0.23 | 0.02 | 63 | 1011.5 |
| 20260510184601 | 67 | 260 | 0.0 | 0.0 | 0.00 | 0.30 | 0.02 | 62 | 1011.7 |
| 20260510183100 | 68 | 166 | 0.0 | 0.0 | 0.00 | 0.30 | 0.02 | 63 | 1011.6 |
| 20260510181601 | 67 | 275 | 0.0 | 0.0 | 0.00 | 0.30 | 0.02 | 65 | 1011.5 |
| 20260510180110 | 68 | 172 | 0.0 | 0.9 | 0.00 | 0.30 | 0.02 | 65 | 1011.6 |
| 20260510174556 | 66 | 159 | 0.0 | 0.9 | 0.00 | 0.38 | 0.02 | 68 | 1011.7 |
| 20260510173100 | 64 | 78 | 0.0 | 4.3 | 0.00 | 0.38 | 0.02 | 74 | 1011.9 |
| 20260510171600 | 63 | 36 | 0.0 | 2.6 | 0.00 | 0.38 | 0.02 | 77 | 1012.1 |
| 20260510170055 | 64 | 229 | 0.0 | 4.3 | 0.00 | 0.38 | 0.02 | 75 | 1012.1 |
| 20260510164557 | 66 | 277 | 0.0 | 0.9 | 0.00 | 0.49 | 0.02 | 70 | 1012.1 |
| 20260510163058 | 68 | 82 | 0.0 | 6.1 | 0.00 | 0.49 | 0.02 | 67 | 1012.0 |
| 20260510161550 | 67 | 216 | 0.0 | 0.9 | 0.00 | 0.49 | 0.02 | 73 | 1011.9 |
| 20260510160046 | 64 | 78 | 0.0 | 0.0 | 0.00 | 0.49 | 0.02 | 79 | 1012.0 |
| 20260510154550 | 61 | 131 | 0.0 | 0.0 | 0.00 | 0.56 | 0.02 | 83 | 1012.2 |
| 20260510153038 | 60 | 190 | 0.0 | 0.0 | 0.00 | 0.56 | 0.02 | 85 | 1012.4 |
| 20260510151534 | 58 | 84 | 0.0 | 0.9 | 0.00 | 0.56 | 0.02 | 91 | 1012.2 |
| 20260510150030 | 56 | 232 | 0.0 | 3.5 | 0.00 | 0.56 | 0.02 | 93 | 1012.2 |
| 20260510144530 | 54 | 360 | 0.0 | 0.0 | 0.00 | 0.59 | 0.02 | 95 | 1012.4 |
| 20260510143022 | 54 | 360 | 0.0 | 0.0 | 0.00 | 0.59 | 0.02 | 96 | 1012.6 |
| 20260510141519 | 53 | 360 | 0.0 | 0.0 | 0.00 | 0.59 | 0.02 | 96 | 1012.6 |
| 20260510140015 | 52 | 155 | 0.0 | 0.0 | 0.00 | 0.59 | 0.02 | 96 | 1012.5 |
| 20260510134514 | 51 | 360 | 0.0 | 0.0 | 0.00 | 0.62 | 0.02 | 96 | 1012.6 |
| 20260510133011 | 51 | 360 | 0.0 | 0.0 | 0.00 | 0.62 | 0.02 | 96 | 1012.9 |
| 20260510131519 | 51 | 360 | 0.0 | 0.0 | 0.00 | 0.62 | 0.02 | 96 | 1012.7 |
| 20260510130005 | 51 | 360 | 0.0 | 0.0 | 0.00 | 0.62 | 0.02 | 96 | 1012.6 |
| 20260510124502 | 50 | 360 | 0.0 | 0.0 | 0.00 | 0.62 | 0.02 | 96 | 1012.4 |
| 20260510123100 | 50 | 360 | 0.0 | 0.0 | 0.00 | 0.62 | 0.02 | 96 | 1012.5 |
| 20260510121559 | 50 | 360 | 0.0 | 0.0 | 0.00 | 0.62 | 0.02 | 96 | 1012.5 |
| 20260510120058 | 50 | 360 | 0.0 | 0.0 | 0.00 | 0.62 | 0.02 | 96 | 1012.5 |
| 20260510114557 | 50 | 360 | 0.0 | 0.0 | 0.00 | 0.62 | 0.02 | 96 | 1012.8 |
| 20260510113100 | 50 | 360 | 0.0 | 0.0 | 0.00 | 0.62 | 0.02 | 96 | 1012.5 |
| 20260510111554 | 50 | 360 | 0.0 | 0.0 | 0.00 | 0.62 | 0.02 | 96 | 1012.2 |
| 20260510110054 | 49 | 360 | 0.0 | 0.9 | 0.00 | 0.62 | 0.02 | 96 | 1012.3 |
| 20260510104547 | 49 | 360 | 0.0 | 0.9 | 0.00 | 0.62 | 0.02 | 96 | 1012.1 |
| 20260510103046 | 49 | 360 | 0.0 | 2.6 | 0.00 | 0.62 | 0.02 | 96 | 1011.7 |
| 20260510101554 | 49 | 360 | 0.0 | 0.0 | 0.00 | 0.62 | 0.02 | 96 | 1011.4 |
| 20260510100043 | 49 | 360 | 0.0 | 0.0 | 0.00 | 0.62 | 0.02 | 96 | 1011.3 |
| 20260510094549 | 49 | 360 | 0.0 | 0.0 | 0.00 | 0.62 | 0.02 | 96 | 1011.2 |
| 20260510093045 | 49 | 360 | 0.0 | 0.0 | 0.00 | 0.62 | 0.02 | 96 | 1010.9 |
| 20260510091544 | 49 | 360 | 0.0 | 2.6 | 0.00 | 0.62 | 0.02 | 96 | 1010.9 |
| 20260510090041 | 49 | 360 | 0.0 | 0.0 | 0.00 | 0.62 | 0.02 | 96 | 1010.9 |
| 20260510084541 | 49 | 360 | 0.0 | 0.0 | 0.00 | 0.62 | 0.02 | 96 | 1011.2 |
| 20260510083039 | 49 | 360 | 0.0 | 0.0 | 0.00 | 0.62 | 0.02 | 96 | 1011.3 |
| 20260510081538 | 49 | 360 | 0.0 | 0.0 | 0.00 | 0.62 | 0.02 | 96 | 1011.6 |
| 20260510080041 | 49 | 360 | 0.0 | 0.0 | 0.00 | 0.62 | 0.02 | 96 | 1011.3 |
| 20260510074542 | 49 | 360 | 0.0 | 0.0 | 0.00 | 0.62 | 0.02 | 96 | 1011.4 |
| 20260510073044 | 49 | 360 | 0.0 | 0.0 | 0.00 | 0.62 | 0.02 | 96 | 1011.2 |
| 20260510071537 | 49 | 360 | 0.0 | 0.0 | 0.00 | 0.62 | 0.02 | 96 | 1011.0 |
| 20260510070035 | 49 | 360 | 0.0 | 0.0 | 0.00 | 0.62 | 0.02 | 96 | 1011.1 |
| 20260510064548 | 49 | 360 | 0.0 | 0.0 | 0.00 | 0.62 | 0.02 | 96 | 1011.2 |
| 20260510063032 | 49 | 360 | 0.0 | 0.0 | 0.00 | 0.62 | 0.02 | 96 | 1011.2 |
| 20260510061532 | 49 | 360 | 0.0 | 1.7 | 0.00 | 0.62 | 0.02 | 96 | 1011.3 |
| 20260510060029 | 49 | 360 | 0.0 | 0.0 | 0.01 | 0.62 | 0.02 | 96 | 1011.3 |
| 20260510054528 | 49 | 360 | 0.0 | 0.0 | 0.01 | 0.62 | 0.02 | 96 | 1011.3 |
| 20260510053039 | 49 | 360 | 0.0 | 0.0 | 0.02 | 0.62 | 0.02 | 96 | 1011.5 |
| 20260510051542 | 49 | 360 | 0.0 | 0.0 | 0.02 | 0.62 | 0.02 | 96 | 1011.2 |
| 20260510050030 | 49 | 360 | 0.0 | 0.0 | 0.01 | 0.61 | 0.01 | 96 | 1011.5 |
| 20260510044524 | 49 | 360 | 0.0 | 0.0 | 0.01 | 0.61 | 0.01 | 96 | 1011.6 |
| 20260510043025 | 49 | 360 | 0.0 | 0.0 | 0.00 | 0.60 | 0.00 | 96 | 1011.6 |
| 20260510041527 | 49 | 360 | 0.0 | 0.0 | 0.00 | 0.60 | 0.00 | 96 | 1011.5 |
| 20260510040021 | 49 | 360 | 0.0 | 0.0 | 0.00 | 0.60 | 0.00 | 96 | 1011.8 |
| 20260510034520 | 49 | 360 | 0.0 | 0.0 | 0.00 | 0.60 | 0.60 | 96 | 1011.7 |
| 20260510033020 | 48 | 360 | 0.0 | 0.0 | 0.00 | 0.60 | 0.60 | 96 | 1011.7 |
| 20260510031524 | 48 | 360 | 0.0 | 0.0 | 0.00 | 0.60 | 0.60 | 96 | 1011.6 |
| 20260510030018 | 48 | 360 | 0.0 | 0.0 | 0.00 | 0.60 | 0.60 | 96 | 1011.6 |
| 20260510024518 | 48 | 360 | 0.0 | 0.0 | 0.00 | 0.60 | 0.60 | 96 | 1011.9 |
| 20260510023014 | 48 | 360 | 0.0 | 0.0 | 0.00 | 0.60 | 0.60 | 96 | 1012.2 |
| 20260510021511 | 48 | 360 | 0.0 | 0.0 | 0.00 | 0.60 | 0.60 | 95 | 1012.2 |
| 20260510020009 | 48 | 360 | 0.0 | 0.0 | 0.00 | 0.60 | 0.60 | 96 | 1012.2 |
| 20260510014512 | 48 | 360 | 0.0 | 0.0 | 0.00 | 0.60 | 0.60 | 96 | 1012.2 |
| 20260510013006 | 48 | 360 | 0.0 | 0.0 | 0.00 | 0.60 | 0.60 | 95 | 1012.2 |
| 20260510011506 | 48 | 360 | 0.0 | 0.0 | 0.00 | 0.60 | 0.60 | 95 | 1012.1 |
| 20260510010006 | 48 | 360 | 0.0 | 0.0 | 0.00 | 0.60 | 0.60 | 95 | 1012.1 |
| 20260510004505 | 48 | 360 | 0.0 | 0.0 | 0.00 | 0.60 | 0.60 | 95 | 1011.7 |
| 20260510003005 | 48 | 360 | 0.0 | 0.0 | 0.00 | 0.60 | 0.60 | 95 | 1011.7 |
| 20260510001504 | 48 | 360 | 0.0 | 0.0 | 0.00 | 0.60 | 0.60 | 95 | 1011.5 |
| 20260510000004 | 48 | 360 | 0.0 | 0.0 | 0.00 | 0.60 | 0.60 | 95 | 1011.4 |
| 20260509234501 | 48 | 360 | 0.0 | 0.0 | 0.00 | 0.60 | 0.60 | 95 | 1011.4 |
| 20260509233057 | 48 | 360 | 0.0 | 0.0 | 0.00 | 0.60 | 0.60 | 95 | 1011.4 |
| 20260509231553 | 48 | 360 | 0.0 | 0.0 | 0.00 | 0.60 | 0.60 | 95 | 1011.3 |
| 20260509230049 | 48 | 360 | 0.0 | 0.0 | 0.00 | 0.60 | 0.60 | 95 | 1011.3 |
| 20260509224543 | 48 | 360 | 0.0 | 0.0 | 0.00 | 0.60 | 0.60 | 95 | 1011.3 |
| 20260509223041 | 48 | 360 | 0.0 | 0.9 | 0.01 | 0.60 | 0.60 | 95 | 1011.1 |
| 20260509221538 | 48 | 360 | 0.0 | 0.0 | 0.01 | 0.60 | 0.60 | 95 | 1011.3 |
| 20260509220042 | 48 | 360 | 0.0 | 0.0 | 0.01 | 0.60 | 0.60 | 95 | 1011.3 |
| 20260509214541 | 48 | 360 | 0.0 | 0.0 | 0.03 | 0.60 | 0.60 | 95 | 1011.3 |
| 20260509213034 | 48 | 360 | 0.0 | 0.0 | 0.05 | 0.59 | 0.59 | 95 | 1011.6 |
| 20260509211530 | 47 | 360 | 0.0 | 0.0 | 0.08 | 0.59 | 0.59 | 95 | 1011.8 |
| 20260509210031 | 47 | 360 | 0.0 | 0.0 | 0.10 | 0.59 | 0.59 | 95 | 1011.9 |
| 20260509204527 | 47 | 360 | 0.0 | 1.7 | 0.11 | 0.56 | 0.56 | 95 | 1011.9 |
| 20260509203035 | 47 | 360 | 0.0 | 0.0 | 0.10 | 0.54 | 0.54 | 95 | 1012.1 |
| 20260509201526 | 47 | 360 | 0.0 | 3.5 | 0.09 | 0.51 | 0.51 | 95 | 1012.1 |
| 20260509200028 | 47 | 360 | 0.0 | 0.0 | 0.10 | 0.49 | 0.49 | 94 | 1012.2 |
| 20260509194534 | 47 | 360 | 0.0 | 0.0 | 0.08 | 0.46 | 0.46 | 95 | 1012.3 |